Time;durP1;ratioP1;P1;durP2;ratioP2;P2;SDS_P1;SDS_P2;PMS_P1;PMS_P2;Temp;Humidity;BMP_temperature;BMP_pressure;BME280_temperature;BME280_humidity;BME280_pressure;Samples;Min_cycle;Max_cycle;Signal;HPM_P1;HPM_P2
2023/10/31 00:00:39;;;;;;;5.93;3.50;;;;;;;16.80;29.56;101593.81;4915216;29;20159;-80
2023/10/31 00:03:08;;;;;;;6.65;3.20;;;;;;;16.76;30.46;101584.09;4912411;29;20092;-79
2023/10/31 00:05:36;;;;;;;7.18;3.08;;;;;;;16.73;30.92;101586.69;4912271;29;20478;-78
2023/10/31 00:08:05;;;;;;;7.35;4.03;;;;;;;16.65;31.53;101575.19;4914164;29;20564;-78
2023/10/31 00:10:34;;;;;;;6.47;3.58;;;;;;;16.55;31.17;101572.41;4913785;29;20501;-78
2023/10/31 00:13:05;;;;;;;6.43;3.50;;;;;;;16.45;31.17;101570.50;4911919;29;20048;-79
2023/10/31 00:15:36;;;;;;;5.40;4.15;;;;;;;16.33;31.24;101565.94;4911802;29;20092;-77
2023/10/31 00:18:04;;;;;;;6.70;4.32;;;;;;;16.24;31.29;101559.63;4913525;29;20618;-79
2023/10/31 00:20:33;;;;;;;6.07;3.58;;;;;;;16.16;30.33;101558.63;4918621;29;20098;-78
2023/10/31 00:23:01;;;;;;;4.97;3.25;;;;;;;16.08;30.77;101561.97;4919743;29;20138;-78
2023/10/31 00:25:30;;;;;;;6.03;3.55;;;;;;;16.00;31.42;101558.31;4914288;29;20116;-79
2023/10/31 00:27:59;;;;;;;3.92;2.55;;;;;;;15.91;31.76;101552.91;4917396;28;20067;-79
2023/10/31 00:30:28;;;;;;;3.85;2.35;;;;;;;15.80;32.45;101563.13;4914457;29;20126;-79
2023/10/31 00:33:00;;;;;;;5.07;2.65;;;;;;;15.68;33.06;101568.94;4914084;29;20060;-77
2023/10/31 00:35:28;;;;;;;;;;;;;;;15.59;32.79;101568.72;4916102;29;20154;-77
2023/10/31 00:37:57;;;;;;;4.45;2.78;;;;;;;15.49;33.18;101564.19;4910429;29;19934;-79
2023/10/31 00:40:26;;;;;;;4.07;2.65;;;;;;;15.36;33.58;101570.84;4908445;29;20044;-78
2023/10/31 00:42:56;;;;;;;4.63;2.80;;;;;;;15.23;35.07;101567.09;4913534;29;20059;-77
2023/10/31 00:45:24;;;;;;;5.00;2.75;;;;;;;15.12;33.62;101578.06;4913441;29;20047;-78
2023/10/31 00:47:58;;;;;;;4.05;2.65;;;;;;;15.02;34.44;101571.75;4914914;29;20526;-77
2023/10/31 00:50:26;;;;;;;4.78;2.70;;;;;;;14.91;35.08;101571.50;4910292;29;20506;-77
2023/10/31 00:52:55;;;;;;;5.15;2.45;;;;;;;14.77;36.70;101568.53;4906074;29;20055;-76
2023/10/31 00:55:25;;;;;;;5.40;2.20;;;;;;;14.67;38.01;101574.38;4909960;29;20136;-78
2023/10/31 00:57:56;;;;;;;4.32;2.55;;;;;;;14.56;37.30;101563.66;4911774;29;20059;-77
2023/10/31 01:00:25;;;;;;;5.53;3.00;;;;;;;14.48;35.38;101561.66;4907884;29;20056;-77
2023/10/31 01:02:54;;;;;;;6.40;3.05;;;;;;;14.38;34.51;101558.81;4912148;29;20060;-76
2023/10/31 01:05:24;;;;;;;4.78;2.45;;;;;;;14.30;35.47;101556.88;4904509;29;20060;-77
2023/10/31 01:07:55;;;;;;;4.13;2.42;;;;;;;14.22;35.98;101564.44;4911329;29;20418;-77
2023/10/31 01:10:24;;;;;;;4.60;2.63;;;;;;;14.12;35.70;101555.53;4910743;29;20055;-76
2023/10/31 01:12:52;;;;;;;5.13;2.65;;;;;;;14.03;35.79;101556.13;4912169;29;20058;-78
2023/10/31 01:15:21;;;;;;;4.68;2.50;;;;;;;13.92;35.74;101557.56;4910904;29;20403;-78
2023/10/31 01:17:50;;;;;;;4.63;2.97;;;;;;;13.86;35.35;101562.59;4911498;29;20494;-78
2023/10/31 01:20:19;;;;;;;4.53;2.53;;;;;;;13.78;36.12;101561.47;4904111;29;20521;-77
2023/10/31 01:22:49;;;;;;;4.82;2.83;;;;;;;13.70;35.51;101552.56;4911011;29;20127;-77
2023/10/31 01:25:18;;;;;;;6.22;2.60;;;;;;;13.62;36.65;101552.34;4912063;29;20086;-78
2023/10/31 01:28:01;;;;;;;4.70;2.72;;;;;;;13.53;37.59;101552.94;4914710;28;20123;-77
2023/10/31 01:30:30;;;;;;;3.90;2.90;;;;;;;13.44;37.06;101552.66;4908945;29;20044;-77
2023/10/31 01:32:59;;;;;;;5.13;2.88;;;;;;;13.34;36.43;101558.44;4906978;29;21009;-77
2023/10/31 01:35:29;;;;;;;5.38;2.40;;;;;;;13.20;37.55;101560.56;4909271;29;20056;-77
2023/10/31 01:38:00;;;;;;;3.75;2.28;;;;;;;13.12;39.07;101559.44;4915114;29;20708;-78
2023/10/31 01:40:34;;;;;;;3.92;2.50;;;;;;;13.06;39.83;101562.72;4911617;29;20052;-79
2023/10/31 01:43:03;;;;;;;3.63;2.30;;;;;;;12.96;40.54;101568.44;4913580;29;20040;-78
2023/10/31 01:45:31;;;;;;;4.70;2.50;;;;;;;12.89;37.78;101566.47;4906814;29;20052;-79
2023/10/31 01:48:02;;;;;;;5.82;2.50;;;;;;;12.80;38.50;101561.84;4912591;29;20056;-80
2023/10/31 01:50:31;;;;;;;4.15;2.38;;;;;;;12.76;39.02;101560.00;4907862;29;20048;-79
2023/10/31 01:53:02;;;;;;;2.92;2.22;;;;;;;12.72;40.17;101561.63;4910603;29;20055;-80
2023/10/31 01:55:30;;;;;;;4.18;2.25;;;;;;;12.66;37.78;101557.91;4911349;29;20048;-80
2023/10/31 01:58:01;;;;;;;4.15;2.35;;;;;;;12.63;38.47;101555.22;4911426;29;20048;-80
2023/10/31 02:00:29;;;;;;;4.05;2.20;;;;;;;12.60;41.20;101558.63;4911871;29;22552;-77
2023/10/31 02:02:59;;;;;;;4.63;2.30;;;;;;;12.54;38.99;101553.19;4910301;29;20050;-79
2023/10/31 02:05:28;;;;;;;5.30;2.58;;;;;;;12.52;38.47;101563.53;4912949;29;20055;-79
2023/10/31 02:07:57;;;;;;;4.57;2.40;;;;;;;12.49;39.52;101570.34;4909393;29;20063;-79
2023/10/31 02:10:32;;;;;;;5.97;2.40;;;;;;;12.45;38.76;101563.28;4907398;29;20056;-79
2023/10/31 02:13:11;;;;;;;5.70;2.53;;;;;;;12.39;42.05;101573.44;4906319;29;20138;-80
2023/10/31 02:15:41;;;;;;;4.68;2.30;;;;;;;12.30;42.32;101568.78;4908097;29;20565;-83
2023/10/31 02:18:12;;;;;;;5.63;3.03;;;;;;;12.19;43.39;101563.25;4916010;29;20047;-84
2023/10/31 02:20:41;;;;;;;7.18;2.88;;;;;;;12.17;39.12;101572.69;4912762;29;20120;-85
2023/10/31 02:23:11;;;;;;;2.65;1.98;;;;;;;12.14;41.17;101568.25;4915856;29;20576;-83
2023/10/31 02:25:40;;;;;;;6.50;2.63;;;;;;;12.13;40.01;101566.47;4912897;29;20051;-83
2023/10/31 02:28:09;;;;;;;6.03;3.15;;;;;;;12.11;39.39;101562.94;4913117;28;21144;-82
2023/10/31 02:30:37;;;;;;;4.53;2.28;;;;;;;12.07;40.62;101573.16;4911048;29;20176;-82
2023/10/31 02:33:06;;;;;;;7.05;2.78;;;;;;;12.02;42.29;101574.69;4911353;29;20040;-84
2023/10/31 02:35:35;;;;;;;7.03;2.88;;;;;;;11.94;43.51;101570.13;4913766;29;20049;-82
2023/10/31 02:38:03;;;;;;;5.88;2.40;;;;;;;11.89;41.77;101576.84;4908876;29;20068;-82
2023/10/31 02:40:42;;;;;;;4.45;2.40;;;;;;;11.84;41.93;101573.19;4912998;29;20048;-83
2023/10/31 02:43:11;;;;;;;5.43;2.72;;;;;;;11.77;42.09;101576.34;4917662;29;20051;-82
2023/10/31 02:45:40;;;;;;;4.18;2.40;;;;;;;11.73;41.08;101574.47;4914439;29;20057;-83
2023/10/31 02:48:10;;;;;;;7.90;2.63;;;;;;;11.64;43.24;101571.53;4908270;29;20060;-83
2023/10/31 02:50:40;;;;;;;7.28;2.83;;;;;;;11.58;42.05;101558.34;4915539;29;20201;-82
2023/10/31 02:53:11;;;;;;;5.72;2.80;;;;;;;11.50;42.08;101566.72;4911453;29;20481;-80
2023/10/31 02:55:48;;;;;;;4.07;2.73;;;;;;;11.46;43.11;101564.81;4915742;29;20056;-79
2023/10/31 02:58:25;;;;;;;6.40;2.70;;;;;;;11.42;43.43;101568.09;4914100;29;20283;-82
2023/10/31 03:00:53;;;;;;;7.50;2.90;;;;;;;11.37;44.78;101574.81;4917876;29;20331;-80
2023/10/31 03:03:22;;;;;;;4.05;2.70;;;;;;;11.33;43.73;101572.94;4912309;29;20071;-79
2023/10/31 03:05:55;;;;;;;4.53;2.50;;;;;;;11.28;42.95;101571.88;4909260;29;20052;-80
2023/10/31 03:08:26;;;;;;;5.40;3.17;;;;;;;11.27;42.83;101578.75;4911149;29;20055;-80
2023/10/31 03:10:56;;;;;;;4.13;2.05;;;;;;;11.25;41.93;101589.91;4909214;29;20059;-78
2023/10/31 03:13:25;;;;;;;5.38;2.63;;;;;;;11.23;41.99;101587.22;4910337;29;20144;-82
2023/10/31 03:15:53;;;;;;;4.82;2.58;;;;;;;11.21;42.27;101593.19;4912961;29;20593;-81
2023/10/31 03:18:23;;;;;;;4.63;2.70;;;;;;;11.16;42.51;101592.13;4907089;29;20052;-78
2023/10/31 03:20:51;;;;;;;5.60;2.92;;;;;;;11.11;46.67;101590.22;4903242;29;20115;-81
2023/10/31 03:23:20;;;;;;;4.53;2.65;;;;;;;11.07;44.52;101590.03;4914013;29;20048;-82
2023/10/31 03:25:49;;;;;;;4.40;2.28;;;;;;;11.02;45.39;101582.06;4906136;29;20056;-81
2023/10/31 03:28:28;;;;;;;5.90;2.50;;;;;;;11.00;45.99;101586.31;4913278;28;20285;-82
2023/10/31 03:30:57;;;;;;;5.82;3.08;;;;;;;10.97;45.17;101598.22;4910851;29;20445;-81
2023/10/31 03:33:26;;;;;;;4.50;2.70;;;;;;;10.98;46.11;101594.84;4915769;29;20052;-81
2023/10/31 03:35:54;;;;;;;4.85;2.35;;;;;;;10.96;43.89;101597.34;4914698;29;20142;-81
2023/10/31 03:38:33;;;;;;;;;;;;;;;;;;;;;
2023/10/31 03:41:02;;;;;;;4.47;2.70;;;;;;;10.88;45.52;101578.91;4917866;29;20216;-80
2023/10/31 03:43:32;;;;;;;3.35;2.13;;;;;;;10.84;44.88;101574.44;4905681;29;20058;-80
2023/10/31 03:46:01;;;;;;;4.53;2.28;;;;;;;10.82;46.76;101573.47;4914190;29;21145;-79
2023/10/31 03:48:35;;;;;;;3.55;2.08;;;;;;;10.77;49.06;101579.28;4913418;29;20056;-80
2023/10/31 03:51:04;;;;;;;4.97;2.53;;;;;;;10.74;51.11;101579.16;4916639;29;20094;-79
2023/10/31 03:53:33;;;;;;;4.57;2.95;;;;;;;10.71;52.59;101581.63;4917920;29;20048;-79
2023/10/31 03:56:01;;;;;;;6.65;2.40;;;;;;;10.68;47.82;101580.66;4917603;29;20103;-79
2023/10/31 03:58:32;;;;;;;5.18;2.92;;;;;;;10.65;48.22;101577.03;4913677;29;20059;-81
2023/10/31 04:01:01;;;;;;;6.22;2.63;;;;;;;10.62;49.46;101589.88;4913951;29;20056;-79
2023/10/31 04:03:29;;;;;;;4.88;2.40;;;;;;;10.59;44.89;101595.81;4911412;29;20075;-79
2023/10/31 04:05:58;;;;;;;3.47;2.47;;;;;;;10.62;46.81;101600.22;4912594;29;20055;-80
2023/10/31 04:08:27;;;;;;;3.75;2.22;;;;;;;10.60;48.46;101599.28;4910892;29;20486;-80
2023/10/31 04:11:03;;;;;;;4.00;2.20;;;;;;;10.56;47.63;101597.38;4915757;29;20051;-81
2023/10/31 04:13:34;;;;;;;7.00;2.83;;;;;;;10.55;46.91;101595.59;4911268;29;20087;-82
2023/10/31 04:16:06;;;;;;;7.13;2.63;;;;;;;10.52;49.42;101598.94;4914628;29;20052;-82
2023/10/31 04:18:37;;;;;;;;;;;;;;;10.49;47.88;101588.47;4913117;29;20664;-84
2023/10/31 04:21:06;;;;;;;4.90;2.90;;;;;;;10.45;47.12;101581.41;4917326;29;19922;-84
2023/10/31 04:23:35;;;;;;;7.82;3.10;;;;;;;10.41;46.00;101587.25;4917366;29;20470;-83
2023/10/31 04:26:04;;;;;;;4.18;2.83;;;;;;;10.37;46.92;101593.97;4920658;29;20106;-82
2023/10/31 04:28:47;;;;;;;6.00;3.17;;;;;;;10.34;43.97;101598.16;4925077;28;20056;-84
2023/10/31 04:31:18;;;;;;;7.47;2.53;;;;;;;10.32;49.27;101597.19;4903953;29;20056;-86
2023/10/31 04:33:47;;;;;;;3.80;2.13;;;;;;;10.28;48.28;101590.97;4903257;29;20704;-84
2023/10/31 04:36:15;;;;;;;5.65;2.38;;;;;;;10.27;49.26;101592.66;4902158;29;20048;-83
2023/10/31 04:38:47;;;;;;;8.30;2.90;;;;;;;10.23;49.12;101601.09;4903114;29;20056;-84
2023/10/31 04:41:15;;;;;;;6.10;2.53;;;;;;;10.22;48.02;101601.06;4897177;29;20044;-84
2023/10/31 04:43:46;;;;;;;4.30;2.22;;;;;;;10.19;46.49;101599.22;4902221;29;20055;-83
2023/10/31 04:46:16;;;;;;;5.10;2.90;;;;;;;10.18;47.79;101601.72;4900683;29;20045;-84
2023/10/31 04:48:47;;;;;;;3.75;2.08;;;;;;;10.13;47.38;101608.41;4903518;29;20726;-85
2023/10/31 04:51:17;;;;;;;2.50;2.30;;;;;;;10.07;47.19;101601.25;4895328;29;20056;-84
2023/10/31 04:53:47;;;;;;;3.83;2.53;;;;;;;10.05;47.15;101601.16;4902037;29;20112;-86
2023/10/31 04:56:17;;;;;;;4.07;2.30;;;;;;;10.02;44.96;101602.75;4899225;29;20056;-88
2023/10/31 04:58:50;;;;;;;4.82;2.17;;;;;;;9.99;48.89;101607.78;4901334;29;20063;-85
2023/10/31 05:01:20;;;;;;;7.97;2.85;;;;;;;9.96;49.14;101610.22;4900686;29;20074;-85
2023/10/31 05:03:49;;;;;;;3.83;2.08;;;;;;;9.89;48.85;101614.22;4898196;29;20037;-87
2023/10/31 05:06:23;;;;;;;4.72;2.35;;;;;;;9.85;49.04;101605.44;4900359;29;20049;-87
2023/10/31 05:08:52;;;;;;;6.47;2.38;;;;;;;9.84;48.15;101601.06;4902967;29;20237;-87
2023/10/31 05:11:21;;;;;;;5.22;2.30;;;;;;;9.81;46.68;101605.22;4900861;29;20064;-86
2023/10/31 05:13:52;;;;;;;4.60;2.13;;;;;;;9.79;48.24;101612.03;4905099;29;20052;-85
2023/10/31 05:16:22;;;;;;;5.20;2.20;;;;;;;9.78;50.14;101615.41;4904896;29;20138;-85
2023/10/31 05:18:51;;;;;;;3.65;2.33;;;;;;;9.76;51.77;101617.94;4911662;29;20080;-86
2023/10/31 05:21:23;;;;;;;4.45;2.15;;;;;;;9.70;46.17;101628.00;4900421;29;20052;-86
2023/10/31 05:23:51;;;;;;;4.95;2.05;;;;;;;9.69;45.68;101625.31;4900966;29;20071;-88
2023/10/31 05:26:20;;;;;;;5.90;2.75;;;;;;;9.69;47.57;101630.47;4905357;29;20064;-87
2023/10/31 05:28:58;;;;;;;4.32;2.05;;;;;;;9.70;45.92;101633.16;4906168;28;20063;-88
2023/10/31 05:31:27;;;;;;;3.58;2.47;;;;;;;9.69;45.14;101631.41;4918992;29;20083;-88
2023/10/31 05:33:55;;;;;;;5.30;2.35;;;;;;;9.71;48.89;101629.78;4918215;29;20056;-86
2023/10/31 05:36:25;;;;;;;4.95;2.20;;;;;;;9.72;49.64;101631.53;4917524;29;20080;-87
2023/10/31 05:38:56;;;;;;;2.97;1.95;;;;;;;9.71;50.69;101623.69;4922588;29;20052;-88
2023/10/31 05:41:28;;;;;;;5.03;1.92;;;;;;;9.69;48.73;101626.22;4930671;29;20051;-88
2023/10/31 05:43:59;;;;;;;4.53;2.15;;;;;;;9.70;48.07;101627.09;4923807;29;20083;-89
2023/10/31 05:46:46;;;;;;;6.15;2.35;;;;;;;9.69;48.37;101626.22;4929357;29;20078;-88
2023/10/31 05:49:15;;;;;;;7.68;2.97;;;;;;;9.64;47.64;101623.44;4929743;29;20085;-87
2023/10/31 05:51:43;;;;;;;3.67;2.38;;;;;;;9.65;47.22;101627.78;4925598;29;20082;-88
2023/10/31 05:54:17;;;;;;;4.60;2.53;;;;;;;9.67;47.55;101627.84;4916378;29;20044;-87
2023/10/31 05:56:46;;;;;;;4.22;2.17;;;;;;;9.65;45.87;101624.31;4912070;29;20898;-87
2023/10/31 05:59:16;;;;;;;4.97;2.60;;;;;;;9.65;44.59;101621.72;4927048;29;20753;-86
2023/10/31 06:01:46;;;;;;;3.60;2.08;;;;;;;9.63;44.76;101628.50;4924107;29;20060;-88
2023/10/31 06:04:22;;;;;;;3.97;2.25;;;;;;;9.60;44.37;101633.56;4925566;29;20305;-86
2023/10/31 06:06:51;;;;;;;4.53;2.33;;;;;;;9.60;44.27;101636.13;4916733;29;20044;-87
2023/10/31 06:09:20;;;;;;;7.00;2.22;;;;;;;9.58;44.19;101624.84;4930428;29;20048;-88
2023/10/31 06:11:48;;;;;;;3.10;2.20;;;;;;;9.58;44.27;101623.13;4921716;29;20048;-87
2023/10/31 06:14:27;;;;;;;5.50;2.40;;;;;;;9.54;43.90;101622.91;4926777;29;20055;-87
2023/10/31 06:16:59;;;;;;;4.22;2.00;;;;;;;9.53;44.16;101637.53;4915895;29;20581;-87
2023/10/31 06:19:28;;;;;;;4.90;1.80;;;;;;;9.50;44.48;101641.66;4924890;29;20116;-87
2023/10/31 06:22:06;;;;;;;4.07;2.40;;;;;;;9.41;44.21;101644.69;4931438;29;20298;-89
2023/10/31 06:24:34;;;;;;;3.17;2.42;;;;;;;9.36;44.62;101641.88;4922377;29;20048;-88
2023/10/31 06:27:03;;;;;;;4.97;2.25;;;;;;;9.32;45.29;101634.81;4932511;29;20048;-87
2023/10/31 06:29:34;;;;;;;5.43;2.58;;;;;;;9.29;45.77;101632.06;4926995;28;20082;-87
2023/10/31 06:32:08;;;;;;;6.72;2.20;;;;;;;9.26;45.82;101628.47;4921359;29;20049;-87
2023/10/31 06:34:40;;;;;;;3.13;1.88;;;;;;;9.20;46.93;101629.03;4926789;29;20051;-86
2023/10/31 06:37:09;;;;;;;4.85;2.00;;;;;;;9.16;47.52;101621.94;4923291;29;20234;-87
2023/10/31 06:39:48;;;;;;;5.60;2.67;;;;;;;9.14;46.54;101628.72;4924218;29;20160;-85
2023/10/31 06:42:23;;;;;;;13.13;2.70;;;;;;;9.03;47.33;101615.31;4927312;29;20048;-87
2023/10/31 06:47:45;;;;;;;4.03;2.55;;;;;;;8.97;49.85;101625.31;4917423;29;20055;-85
2023/10/31 06:50:25;;;;;;;4.13;2.50;;;;;;;8.90;50.91;101624.13;4929953;29;20973;-85
2023/10/31 06:52:57;;;;;;;6.35;2.38;;;;;;;8.87;49.43;101636.00;4923996;29;20051;-85
2023/10/31 06:55:25;;;;;;;3.85;2.38;;;;;;;8.85;49.68;101635.91;4917702;29;20052;-86
2023/10/31 06:57:58;;;;;;;8.32;2.25;;;;;;;8.81;47.50;101623.66;4920012;29;20137;-84
2023/10/31 07:00:31;;;;;;;3.72;2.35;;;;;;;8.83;49.51;101616.00;4911489;29;20119;-86
2023/10/31 07:03:04;;;;;;;5.20;2.42;;;;;;;8.81;48.98;101611.63;4915176;29;20048;-85
2023/10/31 07:05:33;;;;;;;5.20;2.70;;;;;;;8.79;50.48;101604.63;4922383;29;20040;-85
2023/10/31 07:08:10;;;;;;;6.63;2.20;;;;;;;8.76;49.62;101604.47;4896011;29;20056;-84
2023/10/31 07:10:39;;;;;;;6.20;2.85;;;;;;;8.73;50.91;101591.44;4911086;29;20059;-85
2023/10/31 07:13:08;;;;;;;3.55;1.77;;;;;;;8.65;51.15;101597.88;4917985;29;20052;-84
2023/10/31 07:15:48;;;;;;;7.30;2.08;;;;;;;8.61;50.63;101594.25;4918414;29;20059;-85
2023/10/31 07:18:16;;;;;;;4.32;2.17;;;;;;;8.49;49.92;101596.22;4919818;29;20596;-85
2023/10/31 07:20:45;;;;;;;3.75;2.28;;;;;;;8.46;48.78;101602.09;4916088;29;20104;-86
2023/10/31 07:23:14;;;;;;;7.10;2.65;;;;;;;8.41;48.14;101616.47;4917738;29;20048;-85
2023/10/31 07:25:43;;;;;;;4.55;2.33;;;;;;;8.37;48.29;101614.50;4919739;29;20056;-86
2023/10/31 07:28:12;;;;;;;4.97;2.25;;;;;;;8.35;48.70;101621.25;4916920;29;20505;-85
2023/10/31 07:30:43;;;;;;;4.10;2.58;;;;;;;8.33;47.96;101625.44;4918062;28;20060;-87
2023/10/31 07:33:12;;;;;;;5.45;2.50;;;;;;;8.29;48.31;101629.56;4930560;29;20832;-86
2023/10/31 07:35:51;;;;;;;3.80;2.35;;;;;;;8.27;48.77;101631.19;4927650;29;20056;-84
2023/10/31 07:38:19;;;;;;;5.18;2.35;;;;;;;8.28;48.55;101632.94;4923200;29;20056;-84
2023/10/31 07:40:49;;;;;;;4.55;2.35;;;;;;;8.24;48.41;101623.25;4921731;29;20091;-85
2023/10/31 07:43:18;;;;;;;3.40;2.00;;;;;;;8.30;48.35;101627.88;4927551;29;20048;-85
2023/10/31 07:45:54;;;;;;;4.15;2.17;;;;;;;8.32;50.97;101623.69;4924203;29;20499;-85
2023/10/31 07:48:23;;;;;;;5.60;2.60;;;;;;;8.30;50.49;101618.44;4930989;29;20055;-85
2023/10/31 07:50:51;;;;;;;5.00;2.38;;;;;;;8.30;50.27;101625.28;4920669;29;20494;-84
2023/10/31 07:53:20;;;;;;;6.38;2.67;;;;;;;8.28;49.08;101620.06;4924768;29;20059;-86
2023/10/31 07:55:57;;;;;;;8.18;2.03;;;;;;;8.27;48.70;101619.97;4916767;29;20727;-87
2023/10/31 07:58:25;;;;;;;3.92;2.50;;;;;;;8.26;49.40;101628.50;4920508;29;20511;-86
2023/10/31 08:00:59;;;;;;;4.45;3.08;;;;;;;8.22;49.34;101627.44;4930261;29;20052;-87
2023/10/31 08:03:40;;;;;;;6.32;3.05;;;;;;;8.20;49.13;101634.25;4933461;29;20131;-85
2023/10/31 08:06:09;;;;;;;4.25;2.00;;;;;;;8.16;49.33;101634.88;4920989;29;20117;-84
2023/10/31 08:08:38;;;;;;;5.05;2.60;;;;;;;8.13;48.49;101635.59;4920130;29;20098;-87
2023/10/31 08:11:19;;;;;;;3.15;2.28;;;;;;;8.09;49.65;101628.50;4920811;29;20058;-85
2023/10/31 08:13:47;;;;;;;5.88;2.65;;;;;;;8.06;51.14;101623.16;4913981;29;20055;-86
2023/10/31 08:16:21;;;;;;;4.93;2.63;;;;;;;8.01;51.56;101619.47;4929744;29;20605;-86
2023/10/31 08:18:59;;;;;;;5.45;3.05;;;;;;;7.96;50.71;101626.06;4917633;29;20083;-85
2023/10/31 08:21:34;;;;;;;5.28;2.58;;;;;;;7.91;50.30;101623.25;4923103;29;20482;-85
2023/10/31 08:24:05;;;;;;;4.35;2.60;;;;;;;7.84;50.51;101622.84;4914176;29;20629;-85
2023/10/31 08:26:38;;;;;;;5.28;2.25;;;;;;;7.75;51.11;101616.38;4920745;29;20505;-84
2023/10/31 08:29:07;;;;;;;5.18;2.35;;;;;;;7.70;51.08;101617.81;4916623;28;20084;-84
2023/10/31 08:31:38;;;;;;;5.60;2.75;;;;;;;7.63;51.83;101613.13;4922083;29;20051;-85
2023/10/31 08:34:06;;;;;;;4.38;2.20;;;;;;;7.59;52.59;101624.06;4916657;29;20052;-85
2023/10/31 08:36:44;;;;;;;5.80;2.50;;;;;;;7.56;52.39;101613.59;4918502;29;20540;-86
2023/10/31 08:39:13;;;;;;;4.65;2.75;;;;;;;7.52;52.65;101611.66;4916716;29;20644;-86
2023/10/31 08:41:58;;;;;;;5.57;2.70;;;;;;;7.42;52.89;101607.69;4920047;29;20179;-85
2023/10/31 08:44:27;;;;;;;5.45;3.28;;;;;;;7.40;52.92;101621.25;4920706;29;20044;-85
2023/10/31 08:46:57;;;;;;;4.65;2.53;;;;;;;7.34;53.81;101627.84;4919070;29;20057;-86
2023/10/31 08:49:26;;;;;;;5.15;3.00;;;;;;;7.29;53.30;101629.28;4922930;29;20354;-85
2023/10/31 08:51:58;;;;;;;5.93;3.20;;;;;;;7.26;54.26;101628.19;4917828;29;20062;-85
2023/10/31 08:54:26;;;;;;;5.68;2.95;;;;;;;7.19;53.93;101632.09;4918620;29;20062;-86
2023/10/31 08:56:55;;;;;;;3.75;2.83;;;;;;;7.15;54.90;101630.19;4918746;29;20051;-85
2023/10/31 08:59:23;;;;;;;6.05;3.28;;;;;;;7.10;55.78;101631.56;4918398;29;20112;-84
2023/10/31 09:01:52;;;;;;;4.78;2.67;;;;;;;7.07;55.28;101626.25;4921230;29;20052;-85
2023/10/31 09:04:26;;;;;;;7.63;3.53;;;;;;;7.03;55.63;101626.88;4923167;29;20062;-85
2023/10/31 09:06:55;;;;;;;5.10;2.75;;;;;;;6.97;55.97;101618.84;4918793;29;20048;-85
2023/10/31 09:09:23;;;;;;;6.35;2.97;;;;;;;6.92;57.74;101616.88;4910265;29;20610;-85
2023/10/31 09:11:52;;;;;;;7.57;3.67;;;;;;;6.90;57.35;101622.72;4914684;29;20048;-86
2023/10/31 09:14:23;;;;;;;7.03;3.05;;;;;;;6.86;57.41;101621.66;4920783;29;20410;-86
2023/10/31 09:16:51;;;;;;;7.18;3.28;;;;;;;6.84;57.74;101620.66;4917683;29;20048;-85
2023/10/31 09:19:21;;;;;;;5.20;2.80;;;;;;;6.80;57.84;101618.72;4912806;29;20074;-85
2023/10/31 09:21:50;;;;;;;8.95;2.85;;;;;;;6.78;57.90;101622.00;4919438;29;20047;-86
2023/10/31 09:24:19;;;;;;;4.93;2.97;;;;;;;6.76;58.54;101623.59;4916108;29;20052;-85
2023/10/31 09:26:50;;;;;;;4.88;2.85;;;;;;;6.72;58.38;101623.41;4918157;29;20071;-85
2023/10/31 09:29:19;;;;;;;6.03;2.88;;;;;;;6.68;59.89;101621.47;4917882;28;20123;-85
2023/10/31 09:31:47;;;;;;;6.10;3.10;;;;;;;6.65;59.22;101621.28;4908132;29;20094;-86
2023/10/31 09:34:16;;;;;;;7.15;3.30;;;;;;;6.54;59.70;101606.91;4918621;29;20498;-85
2023/10/31 09:36:55;;;;;;;8.10;3.15;;;;;;;6.60;59.30;101622.72;4919569;29;20044;-85
2023/10/31 09:39:24;;;;;;;8.13;3.13;;;;;;;6.55;60.00;101612.94;4928186;29;20565;-86
2023/10/31 09:41:53;;;;;;;10.35;3.05;;;;;;;6.52;60.30;101623.91;4919101;29;20047;-86
2023/10/31 09:44:21;;;;;;;11.05;3.47;;;;;;;6.43;60.18;101613.97;4920132;29;20040;-86
2023/10/31 09:46:56;;;;;;;6.78;3.75;;;;;;;6.45;60.27;101629.50;4917689;29;20044;-86
2023/10/31 09:49:25;;;;;;;11.50;3.63;;;;;;;6.41;60.97;101630.09;4920409;29;20052;-87
2023/10/31 09:51:56;;;;;;;14.98;3.65;;;;;;;6.39;61.67;101629.13;4911818;29;20064;-85
2023/10/31 09:54:30;;;;;;;9.68;3.72;;;;;;;6.36;61.60;101628.94;4917075;29;20052;-88
2023/10/31 09:57:01;;;;;;;5.43;3.33;;;;;;;6.34;61.91;101626.25;4926603;29;20086;-87
2023/10/31 09:59:30;;;;;;;10.30;3.75;;;;;;;6.34;62.80;101623.69;4921671;29;20108;-84
2023/10/31 10:01:59;;;;;;;9.35;3.45;;;;;;;6.32;63.26;101620.13;4929414;29;20241;-84
2023/10/31 10:04:28;;;;;;;8.32;3.75;;;;;;;6.31;63.33;101617.50;4921782;29;20120;-85
2023/10/31 10:07:04;;;;;;;6.95;3.50;;;;;;;6.26;63.70;101619.78;4918047;29;20136;-84
2023/10/31 10:09:33;;;;;;;7.82;3.72;;;;;;;6.20;63.39;101614.28;4917390;29;20708;-86
2023/10/31 10:12:02;;;;;;;5.10;2.92;;;;;;;6.14;64.04;101613.88;4923162;29;20604;-85
2023/10/31 10:14:32;;;;;;;5.95;3.38;;;;;;;6.14;64.08;101634.44;4918012;29;20040;-86
2023/10/31 10:17:01;;;;;;;5.20;2.38;;;;;;;6.14;64.13;101634.44;4920673;29;20080;-87
2023/10/31 10:19:31;;;;;;;6.95;2.85;;;;;;;6.12;63.49;101629.22;4918499;29;20131;-87
2023/10/31 10:22:01;;;;;;;4.07;2.83;;;;;;;6.12;63.62;101625.78;4921830;29;20048;-86
2023/10/31 10:24:30;;;;;;;5.68;2.80;;;;;;;6.08;64.17;101623.00;4913034;29;20415;-85
2023/10/31 10:26:59;;;;;;;6.25;2.88;;;;;;;6.07;64.82;101622.94;4918348;29;20172;-86
2023/10/31 10:29:30;;;;;;;6.60;3.45;;;;;;;6.03;66.28;101624.41;4923599;28;20055;-86
2023/10/31 10:32:01;;;;;;;7.78;3.65;;;;;;;6.01;65.90;101626.00;4917500;29;20044;-86
2023/10/31 10:34:30;;;;;;;5.82;3.22;;;;;;;5.98;65.82;101623.25;4925576;29;20055;-85
2023/10/31 10:37:01;;;;;;;7.30;2.97;;;;;;;5.95;65.86;101622.16;4923825;29;20052;-86
2023/10/31 10:39:34;;;;;;;5.38;2.60;;;;;;;5.93;66.27;101621.13;4928170;29;20082;-86
2023/10/31 10:42:06;;;;;;;7.50;2.97;;;;;;;5.89;66.67;101617.50;4923878;29;20474;-86
2023/10/31 10:44:50;;;;;;;5.93;3.05;;;;;;;5.88;66.33;101619.16;4925293;29;20044;-86
2023/10/31 10:47:20;;;;;;;4.22;3.08;;;;;;;5.85;67.50;101615.53;4926014;29;20323;-86
2023/10/31 10:49:53;;;;;;;7.45;3.97;;;;;;;5.81;68.53;101608.41;4924780;29;20048;-86
2023/10/31 10:52:37;;;;;;;5.55;2.55;;;;;;;5.77;68.53;101607.38;4922007;29;20056;-86
2023/10/31 10:55:10;;;;;;;7.47;2.97;;;;;;;5.71;68.05;101606.97;4925743;29;20052;-86
2023/10/31 10:57:50;;;;;;;8.82;3.28;;;;;;;5.74;68.23;101612.28;4927287;29;20052;-85
2023/10/31 11:00:19;;;;;;;5.28;2.97;;;;;;;5.73;69.08;101610.53;4915037;29;20083;-86
2023/10/31 11:02:50;;;;;;;5.80;2.83;;;;;;;5.72;68.17;101603.59;4919137;29;20059;-86
2023/10/31 11:05:31;;;;;;;7.38;2.78;;;;;;;5.72;69.42;101602.72;4918858;29;20060;-86
2023/10/31 11:08:03;;;;;;;6.15;2.97;;;;;;;5.70;69.01;101599.16;4914482;29;20063;-87
2023/10/31 11:10:33;;;;;;;5.65;2.83;;;;;;;5.68;68.70;101586.25;4927593;29;20051;-85
2023/10/31 11:13:03;;;;;;;4.68;2.58;;;;;;;5.69;68.53;101597.41;4929159;29;20052;-86
2023/10/31 11:15:32;;;;;;;8.23;2.75;;;;;;;5.62;68.97;101589.28;4933991;29;20051;-86
2023/10/31 11:18:04;;;;;;;8.52;3.05;;;;;;;5.60;69.70;101587.44;4912527;29;20044;-86
2023/10/31 11:20:35;;;;;;;4.67;3.17;;;;;;;5.57;69.93;101590.69;4926228;29;20040;-88
2023/10/31 11:23:15;;;;;;;3.75;2.67;;;;;;;5.52;70.07;101581.81;4927116;29;20299;-87
2023/10/31 11:25:45;;;;;;;5.82;2.92;;;;;;;5.56;69.59;101596.59;4932966;29;20044;-87
2023/10/31 11:28:22;;;;;;;5.68;2.72;;;;;;;5.58;70.56;101600.16;4926536;29;20080;-87
2023/10/31 11:31:00;;;;;;;10.68;3.35;;;;;;;5.58;69.65;101596.72;4923487;28;20060;-88
2023/10/31 11:33:29;;;;;;;4.35;2.53;;;;;;;5.60;69.30;101603.72;4924022;29;20056;-90
2023/10/31 11:36:15;;;;;;;8.38;2.80;;;;;;;5.62;70.37;101602.13;4922624;29;20056;-87
2023/10/31 11:38:49;;;;;;;6.78;3.17;;;;;;;5.57;69.63;101590.69;4932080;29;20086;-87
2023/10/31 11:41:31;;;;;;;;;;;;;;;;;;;;;
2023/10/31 11:44:00;;;;;;;5.63;3.05;;;;;;;5.55;71.04;101599.97;4928100;29;20076;-90
2023/10/31 11:46:34;;;;;;;5.28;2.83;;;;;;;5.55;72.23;101602.53;4926064;29;20056;-86
2023/10/31 11:49:14;;;;;;;9.02;3.10;;;;;;;5.50;71.34;101592.75;4923444;29;20059;-87
2023/10/31 11:51:46;;;;;;;6.47;2.80;;;;;;;5.49;73.45;101598.69;4923405;29;20120;-87